createdAt,value
2022-10-30T00:00:01.621Z,98315.56
2022-10-30T00:03:14.905Z,98317.09
2022-10-30T00:09:23.992Z,98309.50
2022-10-30T00:12:26.060Z,98310.00
2022-10-30T00:15:28.236Z,98309.53
2022-10-30T00:18:30.316Z,98309.44
2022-10-30T00:21:32.438Z,98317.00
2022-10-30T00:24:34.626Z,98325.22
2022-10-30T00:27:36.695Z,98325.41
2022-10-30T00:30:38.904Z,98318.72
2022-10-30T00:33:41.015Z,98323.66
2022-10-30T00:36:43.086Z,98323.59
2022-10-30T00:39:45.111Z,98326.81
2022-10-30T00:42:47.241Z,98320.94
2022-10-30T00:45:49.267Z,98317.81
2022-10-30T00:49:04.965Z,98318.69
2022-10-30T00:52:08.373Z,98320.31
2022-10-30T00:55:23.006Z,98324.88
2022-10-30T00:58:38.391Z,98322.28
2022-10-30T01:01:42.949Z,98312.28
2022-10-30T01:04:45.120Z,98306.28
2022-10-30T01:07:47.408Z,98304.88
2022-10-30T01:10:49.486Z,98306.44
2022-10-30T01:13:52.169Z,98308.41
2022-10-30T01:17:06.315Z,98305.09
2022-10-30T01:20:39.665Z,98303.25
2022-10-30T01:23:50.572Z,98304.63
2022-10-30T01:27:20.313Z,98315.66
2022-10-30T01:30:40.049Z,98312.50
2022-10-30T01:34:24.184Z,98307.13
2022-10-30T01:37:48.649Z,98302.66
2022-10-30T01:40:50.933Z,98302.75
2022-10-30T01:43:59.892Z,98290.81
2022-10-30T01:47:28.281Z,98289.88
2022-10-30T01:51:19.881Z,98288.63
2022-10-30T01:54:32.865Z,98276.56
2022-10-30T01:57:49.853Z,98272.19
2022-10-30T02:00:55.529Z,98276.31
2022-10-30T02:03:57.724Z,98274.28
2022-10-30T02:06:59.868Z,98281.94
2022-10-30T02:10:01.985Z,98279.59
2022-10-30T02:13:04.437Z,98289.31
2022-10-30T02:16:07.300Z,98281.66
2022-10-30T02:19:09.465Z,98276.19
2022-10-30T02:22:11.766Z,98285.63
2022-10-30T02:25:14.488Z,98284.91
2022-10-30T02:28:16.756Z,98285.38
2022-10-30T02:31:19.402Z,98293.75
2022-10-30T02:34:21.627Z,98285.09
2022-10-30T02:37:24.453Z,98274.41
2022-10-30T02:40:27.996Z,98274.88
2022-10-30T02:43:31.920Z,98273.00
2022-10-30T02:46:34.861Z,98269.97
2022-10-30T02:49:37.804Z,98266.44
2022-10-30T02:52:40.237Z,98261.06
2022-10-30T02:55:43.902Z,98262.06
2022-10-30T02:58:46.052Z,98253.66
2022-10-30T03:01:48.210Z,98264.16
2022-10-30T03:04:50.379Z,98263.91
2022-10-30T03:07:52.505Z,98241.88
2022-10-30T03:11:01.399Z,98242.13
2022-10-30T03:14:03.436Z,98248.19
2022-10-30T03:17:05.563Z,98244.97
2022-10-30T03:20:08.227Z,98238.00
2022-10-30T03:23:10.269Z,98247.06
2022-10-30T03:26:13.393Z,98252.88
2022-10-30T03:29:24.140Z,98239.06
2022-10-30T03:32:26.223Z,98236.44
2022-10-30T03:35:29.631Z,98243.13
2022-10-30T03:38:31.920Z,98245.13
2022-10-30T03:41:34.036Z,98244.16
2022-10-30T03:44:36.367Z,98245.19
2022-10-30T03:47:40.961Z,98245.25
2022-10-30T03:50:44.219Z,98237.81
2022-10-30T03:53:46.746Z,98242.03
2022-10-30T03:56:48.848Z,98239.81
2022-10-30T03:59:52.088Z,98251.53
2022-10-30T04:03:12.437Z,98244.38
2022-10-30T04:06:17.223Z,98250.56
2022-10-30T04:09:19.331Z,98244.25
2022-10-30T04:12:21.457Z,98256.44
2022-10-30T04:15:23.623Z,98250.13
2022-10-30T04:18:26.165Z,98256.16
2022-10-30T04:21:28.768Z,98248.94
2022-10-30T04:24:31.012Z,98250.53
2022-10-30T04:27:43.553Z,98237.59
2022-10-30T04:30:47.067Z,98236.75
2022-10-30T04:33:51.255Z,98237.69
2022-10-30T04:36:53.516Z,98230.69
2022-10-30T04:39:55.692Z,98229.88
2022-10-30T04:43:03.028Z,98223.63
2022-10-30T04:46:05.980Z,98228.63
2022-10-30T04:49:08.088Z,98211.25
2022-10-30T04:52:10.467Z,98214.94
2022-10-30T04:55:13.397Z,98210.50
2022-10-30T04:58:17.647Z,98207.78
2022-10-30T05:01:23.841Z,98214.34
2022-10-30T05:04:26.037Z,98218.31
2022-10-30T05:07:28.273Z,98216.41
2022-10-30T05:10:30.358Z,98201.50
2022-10-30T05:13:32.604Z,98210.03
2022-10-30T05:16:34.704Z,98210.56
2022-10-30T05:19:39.415Z,98208.28
2022-10-30T05:22:41.665Z,98207.31
2022-10-30T05:25:43.857Z,98214.47
2022-10-30T05:28:47.803Z,98207.94
2022-10-30T05:31:49.873Z,98215.91
2022-10-30T05:34:51.921Z,98220.53
2022-10-30T05:37:57.825Z,98213.78
2022-10-30T05:41:00.049Z,98213.91
2022-10-30T05:44:02.342Z,98220.78
2022-10-30T05:47:04.819Z,98216.84
2022-10-30T05:50:14.263Z,98212.75
2022-10-30T05:53:29.480Z,98214.72
2022-10-30T05:56:32.764Z,98231.44
2022-10-30T05:59:36.454Z,98230.53
2022-10-30T06:02:38.977Z,98232.00
2022-10-30T06:05:43.657Z,98223.75
2022-10-30T06:08:45.940Z,98208.84
2022-10-30T06:12:17.085Z,98197.00
2022-10-30T06:15:28.363Z,98195.19
2022-10-30T06:18:30.493Z,98204.91
2022-10-30T06:21:41.335Z,98203.22
2022-10-30T06:25:00.194Z,98200.59
2022-10-30T06:28:25.305Z,98195.25
2022-10-30T06:31:27.835Z,98205.50
2022-10-30T06:34:29.928Z,98210.25
2022-10-30T06:37:32.296Z,98220.53
2022-10-30T06:40:40.135Z,98216.03
2022-10-30T06:44:01.396Z,98227.72
2022-10-30T06:47:06.549Z,98226.84
2022-10-30T06:50:11.951Z,98211.25
2022-10-30T06:53:14.224Z,98225.72
2022-10-30T06:56:16.482Z,98232.22
2022-10-30T06:59:36.983Z,98228.56
2022-10-30T07:03:02.763Z,98237.38
2022-10-30T07:06:05.758Z,98233.91
2022-10-30T07:09:08.556Z,98212.38
2022-10-30T07:12:10.729Z,98213.78
2022-10-30T07:15:15.381Z,98218.91
2022-10-30T07:18:28.784Z,98225.25
2022-10-30T07:21:33.821Z,98214.66
2022-10-30T07:24:39.705Z,98215.13
2022-10-30T07:28:01.347Z,98206.41
2022-10-30T07:31:41.850Z,98213.91
2022-10-30T07:35:06.308Z,98213.31
2022-10-30T07:38:18.056Z,98220.75
2022-10-30T07:41:33.560Z,98227.38
2022-10-30T07:48:33.656Z,98224.38
2022-10-30T07:51:57.834Z,98230.44
2022-10-30T07:54:59.954Z,98219.09
2022-10-30T07:58:20.430Z,98220.94
2022-10-30T08:01:49.900Z,98228.91
2022-10-30T08:05:06.776Z,98228.22
2022-10-30T08:08:29.177Z,98216.44
2022-10-30T08:11:43.029Z,98225.94
2022-10-30T08:14:45.280Z,98212.56
2022-10-30T08:17:48.935Z,98213.31
2022-10-30T08:20:51.040Z,98220.34
2022-10-30T08:23:53.989Z,98214.22
2022-10-30T08:26:56.190Z,98216.53
2022-10-30T08:29:58.969Z,98219.66
2022-10-30T08:33:02.953Z,98215.53
2022-10-30T08:36:23.480Z,98207.97
2022-10-30T08:39:25.730Z,98212.97
2022-10-30T08:42:39.712Z,98215.22
2022-10-30T08:45:45.620Z,98213.38
2022-10-30T08:48:49.484Z,98215.03
2022-10-30T08:51:53.421Z,98207.69
2022-10-30T08:54:56.489Z,98231.59
2022-10-30T08:58:01.015Z,98218.38
2022-10-30T09:01:03.251Z,98226.44
2022-10-30T09:04:34.781Z,98215.91
2022-10-30T09:07:39.599Z,98216.00
2022-10-30T09:11:12.821Z,98210.97
2022-10-30T09:14:15.029Z,98200.19
2022-10-30T09:17:17.233Z,98203.88
2022-10-30T09:20:20.936Z,98210.22
2022-10-30T09:23:23.167Z,98206.16
2022-10-30T09:26:30.940Z,98193.13
2022-10-30T09:29:53.408Z,98201.00
2022-10-30T09:33:00.551Z,98197.19
2022-10-30T09:36:33.108Z,98191.94
2022-10-30T09:39:35.900Z,98191.88
2022-10-30T09:42:46.197Z,98189.50
2022-10-30T09:46:26.236Z,98191.78
2022-10-30T09:49:59.764Z,98166.78
2022-10-30T09:53:33.378Z,98181.75
2022-10-30T09:56:45.533Z,98181.25
2022-10-30T10:00:13.900Z,98182.50
2022-10-30T10:03:42.275Z,98187.91
2022-10-30T10:07:37.579Z,98177.28
2022-10-30T10:11:17.649Z,98178.44
2022-10-30T10:14:26.557Z,98187.28
2022-10-30T10:17:34.451Z,98182.75
2022-10-30T10:20:44.032Z,98175.03
2022-10-30T10:23:50.724Z,98164.13
2022-10-30T10:27:13.384Z,98164.84
2022-10-30T10:30:20.378Z,98181.63
2022-10-30T10:33:39.055Z,98169.97
2022-10-30T10:36:46.514Z,98181.78
2022-10-30T10:40:44.771Z,98178.69
2022-10-30T10:44:57.868Z,98175.13
2022-10-30T10:48:09.853Z,98173.06
2022-10-30T10:51:22.444Z,98165.19
2022-10-30T10:54:32.794Z,98157.50
2022-10-30T10:57:39.400Z,98156.34
2022-10-30T11:00:41.479Z,98154.94
2022-10-30T11:04:16.285Z,98144.34
2022-10-30T11:07:20.994Z,98150.28
2022-10-30T11:10:23.841Z,98147.06
2022-10-30T11:13:31.807Z,98153.28
2022-10-30T11:17:26.937Z,98150.38
2022-10-30T11:20:56.230Z,98144.78
2022-10-30T11:23:58.357Z,98144.53
2022-10-30T11:27:26.253Z,98145.53
2022-10-30T11:30:29.054Z,98137.22
2022-10-30T11:33:31.110Z,98145.31
2022-10-30T11:36:36.378Z,98149.16
2022-10-30T11:39:38.501Z,98144.47
2022-10-30T11:42:58.935Z,98134.91
2022-10-30T11:46:01.180Z,98125.53
2022-10-30T11:49:03.289Z,98118.88
2022-10-30T11:52:05.529Z,98114.63
2022-10-30T11:55:22.446Z,98120.63
2022-10-30T11:58:29.848Z,98104.28
2022-10-30T12:01:34.719Z,98105.19
2022-10-30T12:04:36.877Z,98103.06
2022-10-30T12:07:38.925Z,98099.66
2022-10-30T12:10:50.674Z,98098.19
2022-10-30T12:13:54.405Z,98102.06
2022-10-30T12:16:56.813Z,98114.13
2022-10-30T12:19:58.848Z,98099.47
2022-10-30T12:23:21.144Z,98109.03
2022-10-30T12:26:24.111Z,98102.75
2022-10-30T12:30:09.575Z,98102.56
2022-10-30T12:33:50.419Z,98102.31
2022-10-30T12:37:03.824Z,98083.00
2022-10-30T12:40:21.647Z,98091.75
2022-10-30T12:43:27.504Z,98089.91
2022-10-30T12:46:56.019Z,98086.59
2022-10-30T12:53:38.826Z,98057.50
2022-10-30T12:56:44.267Z,98072.16
2022-10-30T12:59:57.322Z,98055.63
2022-10-30T13:03:26.669Z,98046.88
2022-10-30T13:06:31.893Z,98043.50
2022-10-30T13:09:57.933Z,98050.91
2022-10-30T13:13:07.801Z,98040.91
2022-10-30T13:16:25.895Z,98027.16
2022-10-30T13:19:28.178Z,98035.97
2022-10-30T13:23:03.063Z,98029.38
2022-10-30T13:26:26.607Z,98032.88
2022-10-30T13:29:49.262Z,98028.28
2022-10-30T13:33:15.696Z,98030.63
2022-10-30T13:36:50.151Z,98031.78
2022-10-30T13:40:14.182Z,98006.88
2022-10-30T13:43:25.103Z,98002.72
2022-10-30T13:47:27.035Z,98013.69
2022-10-30T13:51:26.743Z,98007.72
2022-10-30T13:54:32.544Z,98007.28
2022-10-30T13:57:39.841Z,98005.94
2022-10-30T14:01:08.029Z,98006.25
2022-10-30T14:04:17.594Z,98017.66
2022-10-30T14:07:32.484Z,98029.16
2022-10-30T14:11:00.467Z,98033.44
2022-10-30T14:14:12.878Z,98028.25
2022-10-30T14:17:16.565Z,98026.69
2022-10-30T14:20:22.209Z,98017.28
2022-10-30T14:23:37.063Z,98023.19
2022-10-30T14:27:05.836Z,98009.94
2022-10-30T14:30:27.778Z,98008.56
2022-10-30T14:33:50.600Z,98010.44
2022-10-30T14:36:52.956Z,98024.03
2022-10-30T14:39:56.236Z,98003.78
2022-10-30T14:42:59.026Z,98010.44
2022-10-30T14:46:03.831Z,98021.28
2022-10-30T14:49:47.462Z,98017.44
2022-10-30T14:52:49.551Z,98011.38
2022-10-30T14:56:14.819Z,98008.44
2022-10-30T14:59:16.759Z,98005.34
2022-10-30T15:02:51.536Z,98005.28
2022-10-30T15:06:17.992Z,97985.84
2022-10-30T15:10:01.686Z,97985.16
2022-10-30T15:13:29.901Z,97986.22
2022-10-30T15:16:32.053Z,97991.00
2022-10-30T15:19:34.424Z,97999.94
2022-10-30T15:22:36.462Z,97998.88
2022-10-30T15:25:50.457Z,97988.91
2022-10-30T15:28:52.741Z,98000.22
2022-10-30T15:31:58.545Z,97993.00
2022-10-30T15:35:05.251Z,97995.72
2022-10-30T15:38:09.875Z,97998.25
2022-10-30T15:41:11.928Z,98013.34
2022-10-30T15:44:19.744Z,98014.31
2022-10-30T15:47:21.798Z,98018.94
2022-10-30T15:50:23.853Z,98024.38
2022-10-30T15:53:33.634Z,98034.00
2022-10-30T15:57:08.110Z,98032.22
2022-10-30T16:00:08.345Z,98034.34
2022-10-30T16:03:13.453Z,98037.31
2022-10-30T16:06:18.940Z,98037.03
2022-10-30T16:09:21.319Z,98040.19
2022-10-30T16:12:27.992Z,98038.09
2022-10-30T16:15:33.270Z,98054.03
2022-10-30T16:18:35.939Z,98058.06
2022-10-30T16:21:38.139Z,98064.16
2022-10-30T16:24:40.189Z,98067.09
2022-10-30T16:27:45.684Z,98065.78
2022-10-30T16:30:47.953Z,98066.59
2022-10-30T16:33:50.037Z,98062.56
2022-10-30T16:36:52.372Z,98068.97
2022-10-30T16:39:54.473Z,98075.31
2022-10-30T16:42:59.427Z,98094.09
2022-10-30T16:46:16.581Z,98070.69
2022-10-30T16:49:23.146Z,98077.56
2022-10-30T16:52:35.472Z,98081.81
2022-10-30T16:55:38.660Z,98085.50
2022-10-30T16:58:40.881Z,98088.97
2022-10-30T17:01:43.120Z,98093.16
2022-10-30T17:04:47.568Z,98094.00
2022-10-30T17:07:57.189Z,98095.97
2022-10-30T17:11:01.957Z,98097.16
2022-10-30T17:14:19.948Z,98103.28
2022-10-30T17:17:24.969Z,98102.44
2022-10-30T17:20:30.902Z,98099.03
2022-10-30T17:23:34.281Z,98093.81
2022-10-30T17:26:39.117Z,98107.75
2022-10-30T17:29:41.091Z,98118.72
2022-10-30T17:32:44.525Z,98119.72
2022-10-30T17:35:46.637Z,98121.16
2022-10-30T17:38:48.743Z,98133.47
2022-10-30T17:41:51.857Z,98145.25
2022-10-30T17:44:53.950Z,98150.28
2022-10-30T17:47:56.238Z,98153.38
2022-10-30T17:50:58.554Z,98150.16
2022-10-30T17:54:00.640Z,98157.84
2022-10-30T17:57:03.013Z,98148.09
2022-10-30T18:00:05.974Z,98154.25
2022-10-30T18:03:13.604Z,98160.06
2022-10-30T18:06:22.440Z,98168.53
2022-10-30T18:09:24.567Z,98164.81
2022-10-30T18:12:26.651Z,98182.31
2022-10-30T18:15:32.736Z,98176.00
2022-10-30T18:18:34.805Z,98179.16
2022-10-30T18:21:38.103Z,98178.44
2022-10-30T18:24:40.299Z,98182.13
2022-10-30T18:27:45.090Z,98183.78
2022-10-30T18:30:53.117Z,98188.13
2022-10-30T18:33:55.172Z,98193.44
2022-10-30T18:36:57.385Z,98210.81
2022-10-30T18:39:59.473Z,98207.50
2022-10-30T18:43:02.353Z,98213.53
2022-10-30T18:46:04.764Z,98224.97
2022-10-30T18:49:06.885Z,98221.00
2022-10-30T18:52:09.437Z,98232.13
2022-10-30T18:55:19.897Z,98227.53
2022-10-30T18:58:21.975Z,98240.28
2022-10-30T19:01:24.262Z,98252.41
2022-10-30T19:04:27.133Z,98250.03
2022-10-30T19:07:29.262Z,98258.19
2022-10-30T19:10:33.968Z,98248.47
2022-10-30T19:13:36.123Z,98259.34
2022-10-30T19:16:38.221Z,98255.91
2022-10-30T19:19:40.552Z,98232.78
2022-10-30T19:22:42.726Z,98249.44
2022-10-30T19:25:45.091Z,98232.78
2022-10-30T19:28:47.198Z,98246.50
2022-10-30T19:31:49.391Z,98243.72
2022-10-30T19:34:51.485Z,98255.66
2022-10-30T19:37:55.470Z,98243.34
2022-10-30T19:40:57.633Z,98266.66
2022-10-30T19:43:59.762Z,98257.66
2022-10-30T19:47:01.885Z,98245.22
2022-10-30T19:50:35.163Z,98243.44
2022-10-30T19:53:38.089Z,98253.94
2022-10-30T19:56:42.234Z,98256.72
2022-10-30T19:59:44.291Z,98238.63
2022-10-30T20:02:46.813Z,98260.03
2022-10-30T20:05:52.299Z,98266.06
2022-10-30T20:08:54.495Z,98256.97
2022-10-30T20:11:56.735Z,98253.38
2022-10-30T20:14:59.076Z,98268.81
2022-10-30T20:18:01.743Z,98251.66
2022-10-30T20:21:08.441Z,98239.38
2022-10-30T20:24:12.534Z,98247.38
2022-10-30T20:27:14.674Z,98246.38
2022-10-30T20:30:22.058Z,98260.63
2022-10-30T20:33:25.527Z,98274.81
2022-10-30T20:36:27.619Z,98253.94
2022-10-30T20:39:29.717Z,98268.66
2022-10-30T20:42:36.785Z,98275.06
2022-10-30T20:45:39.322Z,98267.16
2022-10-30T20:48:41.377Z,98269.56
2022-10-30T20:51:43.478Z,98271.22
2022-10-30T20:54:45.577Z,98274.56
2022-10-30T20:57:47.673Z,98281.19
2022-10-30T21:00:50.222Z,98284.38
2022-10-30T21:03:54.474Z,98297.91
2022-10-30T21:06:59.090Z,98289.22
2022-10-30T21:10:01.260Z,98297.94
2022-10-30T21:13:07.334Z,98310.78
2022-10-30T21:16:11.823Z,98317.06
2022-10-30T21:19:14.013Z,98314.78
2022-10-30T21:22:18.192Z,98317.88
2022-10-30T21:25:20.284Z,98320.84
2022-10-30T21:28:22.372Z,98321.81
2022-10-30T21:31:24.532Z,98320.53
2022-10-30T21:34:26.636Z,98316.25
2022-10-30T21:37:28.825Z,98334.38
2022-10-30T21:40:31.045Z,98320.00
2022-10-30T21:43:33.133Z,98321.25
2022-10-30T21:46:35.206Z,98331.50
2022-10-30T21:49:37.360Z,98338.41
2022-10-30T21:52:39.567Z,98338.81
2022-10-30T21:55:41.646Z,98342.75
2022-10-30T21:58:43.881Z,98337.97
2022-10-30T22:01:46.594Z,98333.56
2022-10-30T22:04:48.847Z,98340.44
2022-10-30T22:07:54.313Z,98338.91
2022-10-30T22:10:56.409Z,98342.91
2022-10-30T22:14:00.323Z,98351.34
2022-10-30T22:17:02.443Z,98352.81
2022-10-30T22:20:04.936Z,98348.28
2022-10-30T22:23:07.017Z,98347.97
2022-10-30T22:26:15.763Z,98351.59
2022-10-30T22:29:17.902Z,98351.47
2022-10-30T22:32:19.970Z,98347.47
2022-10-30T22:35:22.053Z,98353.56
2022-10-30T22:38:24.133Z,98354.94
2022-10-30T22:41:27.795Z,98354.44
2022-10-30T22:44:31.981Z,98354.94
2022-10-30T22:47:34.230Z,98349.63
2022-10-30T22:50:38.040Z,98346.25
2022-10-30T22:53:40.231Z,98355.25
2022-10-30T22:56:42.383Z,98357.59
2022-10-30T22:59:44.470Z,98361.59
2022-10-30T23:02:46.630Z,98368.13
2022-10-30T23:05:59.559Z,98373.94
2022-10-30T23:09:04.286Z,98377.75
2022-10-30T23:12:06.676Z,98377.88
2022-10-30T23:15:09.632Z,98378.06
2022-10-30T23:18:11.713Z,98373.38
2022-10-30T23:21:17.106Z,98380.59
2022-10-30T23:24:19.321Z,98376.56
2022-10-30T23:27:21.394Z,98378.97
2022-10-30T23:30:23.711Z,98374.56
2022-10-30T23:33:25.927Z,98370.31
2022-10-30T23:36:28.319Z,98372.41
2022-10-30T23:39:30.505Z,98379.72
2022-10-30T23:42:32.686Z,98386.91
2022-10-30T23:45:35.552Z,98377.53
2022-10-30T23:48:37.668Z,98383.53
2022-10-30T23:51:40.016Z,98373.16
2022-10-30T23:54:42.400Z,98377.19
2022-10-30T23:57:48.088Z,98387.66
